Newport, Indiana
Current Conditions -  °F | °C
As of 11:55 PM on Saturday 25 Oct 2014 (Local Time) from KPRG Reporting Station
Clear Clear  
Wind Chill: 13°   Ceiling: Unl
Heat Index: 13°   Visibility: 10mi
Dew Point:   Wind: 3mph
Humidity: 75%   Direction: 310°NW
Pressure: 30.01"   Gusts: NA
Location:  39.88°N, 87.41°W
Report Text: KPRG 260355Z AUTO 31003KT 10SM CLR 13/08 A3001 RMK AO2 T01250082
Loading
Personal Weather Stations






























Interactive Weather Map
Tropical Storm Tracking
New forecast layout! Learn more

10-Day Weather Forecast

Advertisements
Track Severe Weather on mobile